createdAt,value
2022-12-24T00:01:07.867Z,60.27
2022-12-24T00:03:36.560Z,61.57
2022-12-24T00:06:16.881Z,61.60
2022-12-24T00:08:43.871Z,59.23
2022-12-24T00:11:11.084Z,60.00
2022-12-24T00:13:38.237Z,61.23
2022-12-24T00:16:06.148Z,59.97
2022-12-24T00:18:33.130Z,59.97
2022-12-24T00:21:01.935Z,58.03
2022-12-24T00:23:28.875Z,60.63
2022-12-24T00:25:56.217Z,62.80
2022-12-24T00:28:23.312Z,56.53
2022-12-24T00:30:50.586Z,56.10
2022-12-24T00:33:24.064Z,57.80
2022-12-24T00:35:53.106Z,54.37
2022-12-24T00:38:20.070Z,57.93
2022-12-24T00:40:47.380Z,54.70
2022-12-24T00:43:14.402Z,53.37
2022-12-24T00:45:41.640Z,54.67
2022-12-24T00:48:08.602Z,55.33
2022-12-24T00:50:35.819Z,56.13
2022-12-24T00:53:02.839Z,58.27
2022-12-24T00:55:30.081Z,57.03
2022-12-24T00:57:56.989Z,57.33
2022-12-24T01:00:24.285Z,54.33
2022-12-24T01:02:51.314Z,55.60
2022-12-24T01:05:20.993Z,55.63
2022-12-24T01:07:48.301Z,58.07
2022-12-24T01:10:18.579Z,57.53
2022-12-24T01:12:46.495Z,56.00
2022-12-24T01:15:15.663Z,57.73
2022-12-24T01:17:42.635Z,62.43
2022-12-24T01:20:15.152Z,64.80
2022-12-24T01:22:42.151Z,66.43
2022-12-24T01:25:09.858Z,60.90
2022-12-24T01:27:37.030Z,61.53
2022-12-24T01:30:06.553Z,62.73
2022-12-24T01:32:33.490Z,62.13
2022-12-24T01:35:01.065Z,61.13
2022-12-24T01:37:28.152Z,59.70
2022-12-24T01:40:18.197Z,58.23
2022-12-24T01:43:06.873Z,63.53
2022-12-24T01:45:38.673Z,60.63
2022-12-24T01:48:13.553Z,59.27
2022-12-24T01:50:40.802Z,57.30
2022-12-24T01:53:09.119Z,86.90
2022-12-24T01:55:36.773Z,60.20
2022-12-24T01:58:04.485Z,64.53
2022-12-24T02:00:31.830Z,60.93
2022-12-24T02:02:59.230Z,61.87
2022-12-24T02:05:54.596Z,56.37
2022-12-24T02:08:21.860Z,61.57
2022-12-24T02:10:49.741Z,59.07
2022-12-24T02:13:19.477Z,63.43
2022-12-24T02:16:02.729Z,57.33
2022-12-24T02:18:43.837Z,98.80
2022-12-24T02:21:52.595Z,61.83
2022-12-24T02:24:40.892Z,54.50
2022-12-24T02:27:26.570Z,47.90
2022-12-24T02:30:05.560Z,49.67
2022-12-24T02:32:35.495Z,51.87
2022-12-24T02:35:35.751Z,48.60
2022-12-24T02:38:25.352Z,51.23
2022-12-24T02:40:55.695Z,48.13
2022-12-24T02:43:27.925Z,45.27
2022-12-24T02:45:59.714Z,51.97
2022-12-24T02:48:28.138Z,50.73
2022-12-24T02:51:04.081Z,59.03
2022-12-24T02:53:31.707Z,49.80
2022-12-24T02:56:00.687Z,48.60
2022-12-24T02:58:34.717Z,47.70
2022-12-24T03:01:16.576Z,47.67
2022-12-24T03:04:21.354Z,45.63
2022-12-24T03:06:58.096Z,42.07
2022-12-24T03:09:37.587Z,42.37
2022-12-24T03:12:08.861Z,46.80
2022-12-24T03:14:37.227Z,46.50
2022-12-24T03:17:04.249Z,50.53
2022-12-24T03:19:31.916Z,45.13
2022-12-24T03:22:00.421Z,45.07
2022-12-24T03:24:27.749Z,49.17
2022-12-24T03:26:54.879Z,43.80
2022-12-24T03:29:22.174Z,43.50
2022-12-24T03:31:52.973Z,46.40
2022-12-24T03:34:20.228Z,47.07
2022-12-24T03:36:47.662Z,47.33
2022-12-24T03:39:14.935Z,42.90
2022-12-24T03:41:41.859Z,44.13
2022-12-24T03:44:09.210Z,43.77
2022-12-24T03:46:36.206Z,45.60
2022-12-24T03:49:03.661Z,52.47
2022-12-24T03:51:30.560Z,45.33
2022-12-24T03:53:58.242Z,49.67
2022-12-24T03:56:25.701Z,47.97
2022-12-24T03:58:53.566Z,50.63
2022-12-24T04:01:20.650Z,50.73
2022-12-24T04:03:47.945Z,71.80
2022-12-24T04:06:17.789Z,96.00
2022-12-24T04:08:45.492Z,64.73
2022-12-24T04:11:14.841Z,60.27
2022-12-24T04:13:42.178Z,56.20
2022-12-24T04:16:13.027Z,53.80
2022-12-24T04:18:40.815Z,51.27
2022-12-24T04:21:08.503Z,51.23
2022-12-24T04:23:37.033Z,52.33
2022-12-24T04:26:05.865Z,53.03
2022-12-24T04:28:33.898Z,55.50
2022-12-24T04:31:06.643Z,56.47
2022-12-24T04:33:34.150Z,55.33
2022-12-24T04:36:02.489Z,124.80
2022-12-24T04:38:29.799Z,74.80
2022-12-24T04:41:05.636Z,61.10
2022-12-24T04:43:33.097Z,66.23
2022-12-24T04:46:15.025Z,75.83
2022-12-24T04:48:42.360Z,60.83
2022-12-24T04:51:10.063Z,64.13
2022-12-24T04:53:38.499Z,51.63
2022-12-24T04:56:09.439Z,53.63
2022-12-24T04:58:36.737Z,47.83
2022-12-24T05:01:07.846Z,49.30
2022-12-24T05:03:35.567Z,49.67
2022-12-24T05:06:07.351Z,45.50
2022-12-24T05:08:34.866Z,49.60
2022-12-24T05:11:02.375Z,51.53
2022-12-24T05:13:40.371Z,57.53
2022-12-24T05:16:10.127Z,73.00
2022-12-24T05:18:37.689Z,62.93
2022-12-24T05:21:09.596Z,57.93
2022-12-24T05:23:56.467Z,52.80
2022-12-24T05:26:34.222Z,48.83
2022-12-24T05:29:03.299Z,46.90
2022-12-24T05:31:31.800Z,47.00
2022-12-24T05:33:59.883Z,50.70
2022-12-24T05:36:27.317Z,61.37
2022-12-24T05:38:54.713Z,58.93
2022-12-24T05:41:22.036Z,55.67
2022-12-24T05:43:49.909Z,74.13
2022-12-24T05:46:19.632Z,47.00
2022-12-24T05:48:47.921Z,46.50
2022-12-24T05:51:18.763Z,44.20
2022-12-24T05:53:47.268Z,42.43
2022-12-24T05:56:17.016Z,51.37
2022-12-24T05:58:45.381Z,42.80
2022-12-24T06:01:13.222Z,40.60
2022-12-24T06:03:40.797Z,38.73
2022-12-24T06:06:13.511Z,42.53
2022-12-24T06:08:41.898Z,45.80
2022-12-24T06:11:12.095Z,47.43
2022-12-24T06:13:41.231Z,56.87
2022-12-24T06:16:11.754Z,54.53
2022-12-24T06:18:39.403Z,44.80
2022-12-24T06:21:07.026Z,43.00
2022-12-24T06:23:36.730Z,38.13
2022-12-24T06:26:04.818Z,38.47
2022-12-24T06:28:33.921Z,42.33
2022-12-24T06:31:03.432Z,41.73
2022-12-24T06:33:32.473Z,36.27
2022-12-24T06:35:59.859Z,41.33
2022-12-24T06:38:27.299Z,44.53
2022-12-24T06:40:55.949Z,83.07
2022-12-24T06:43:23.447Z,54.30
2022-12-24T06:45:50.473Z,51.47
2022-12-24T06:48:17.786Z,42.40
2022-12-24T06:50:44.796Z,44.87
2022-12-24T06:53:12.137Z,53.40
2022-12-24T06:55:39.233Z,43.07
2022-12-24T06:58:06.569Z,43.23
2022-12-24T07:00:33.600Z,36.37
2022-12-24T07:03:00.857Z,42.37
2022-12-24T07:05:28.410Z,45.00
2022-12-24T07:07:56.129Z,51.57
2022-12-24T07:10:23.324Z,73.43
2022-12-24T07:12:50.615Z,51.13
2022-12-24T07:15:17.660Z,45.27
2022-12-24T07:17:45.202Z,39.27
2022-12-24T07:20:14.887Z,34.37
2022-12-24T07:22:42.910Z,36.70
2022-12-24T07:25:10.368Z,35.50
2022-12-24T07:27:38.611Z,31.97
2022-12-24T07:30:06.580Z,36.03
2022-12-24T07:32:34.192Z,41.20
2022-12-24T07:35:01.117Z,33.97
2022-12-24T07:37:28.394Z,31.40
2022-12-24T07:39:56.016Z,28.70
2022-12-24T07:42:23.530Z,29.03
2022-12-24T07:44:50.665Z,32.17
2022-12-24T07:47:17.953Z,28.50
2022-12-24T07:49:44.886Z,29.63
2022-12-24T07:52:12.163Z,29.07
2022-12-24T07:54:39.101Z,31.93
2022-12-24T07:57:06.460Z,32.13
2022-12-24T07:59:33.522Z,29.03
2022-12-24T08:02:00.966Z,34.83
2022-12-24T08:04:28.354Z,35.43
2022-12-24T08:06:55.575Z,35.70
2022-12-24T08:09:22.586Z,37.00
2022-12-24T08:11:52.320Z,36.30
2022-12-24T08:14:20.014Z,35.30
2022-12-24T08:16:47.373Z,34.50
2022-12-24T08:19:14.352Z,36.03
2022-12-24T08:21:41.696Z,33.60
2022-12-24T08:24:08.889Z,33.27
2022-12-24T08:26:36.162Z,36.67
2022-12-24T08:29:04.287Z,36.97
2022-12-24T08:31:36.590Z,38.90
2022-12-24T08:34:05.211Z,48.13
2022-12-24T08:36:32.706Z,40.33
2022-12-24T08:39:03.585Z,37.03
2022-12-24T08:41:31.721Z,38.50
2022-12-24T08:43:58.981Z,38.10
2022-12-24T08:46:26.651Z,35.33
2022-12-24T08:48:53.714Z,32.90
2022-12-24T08:51:21.064Z,41.53
2022-12-24T08:53:48.078Z,35.20
2022-12-24T08:56:15.547Z,35.67
2022-12-24T08:58:42.566Z,35.20
2022-12-24T09:01:15.711Z,34.33
2022-12-24T09:03:43.680Z,32.73
2022-12-24T09:06:11.044Z,34.13
2022-12-24T09:08:38.279Z,31.23
2022-12-24T09:11:07.970Z,34.33
2022-12-24T09:13:34.925Z,32.53
2022-12-24T09:16:02.317Z,35.90
2022-12-24T09:18:29.806Z,37.23
2022-12-24T09:21:01.615Z,35.97
2022-12-24T09:23:28.944Z,32.77
2022-12-24T09:25:56.602Z,34.27
2022-12-24T09:28:23.711Z,41.10
2022-12-24T09:31:04.577Z,49.23
2022-12-24T09:33:35.099Z,46.10
2022-12-24T09:36:03.226Z,43.90
2022-12-24T09:38:30.749Z,42.33
2022-12-24T09:41:02.441Z,38.20
2022-12-24T09:43:34.324Z,33.17
2022-12-24T09:46:04.705Z,33.13
2022-12-24T09:48:34.367Z,37.10
2022-12-24T09:51:13.000Z,40.57
2022-12-24T09:53:47.961Z,43.53
2022-12-24T09:56:24.675Z,45.50
2022-12-24T09:58:57.146Z,44.50
2022-12-24T10:01:24.870Z,43.17
2022-12-24T10:03:52.145Z,40.97
2022-12-24T10:06:37.053Z,43.10
2022-12-24T10:09:38.134Z,41.33
2022-12-24T10:12:25.357Z,39.97
2022-12-24T10:15:14.059Z,38.03
2022-12-24T10:17:53.197Z,43.60
2022-12-24T10:20:51.465Z,44.93
2022-12-24T10:23:56.975Z,46.77
2022-12-24T10:26:31.093Z,46.60
2022-12-24T10:29:01.840Z,33.97
2022-12-24T10:31:34.247Z,43.57
2022-12-24T10:34:04.804Z,39.97
2022-12-24T10:36:32.238Z,37.83
2022-12-24T10:38:59.605Z,36.80
2022-12-24T10:41:27.207Z,33.70
2022-12-24T10:43:55.311Z,35.20
2022-12-24T10:49:20.105Z,37.27
2022-12-24T10:51:51.597Z,40.40
2022-12-24T10:54:27.400Z,41.37
2022-12-24T10:57:02.709Z,40.87
2022-12-24T10:59:36.054Z,34.23
2022-12-24T11:02:06.548Z,31.63
2022-12-24T11:04:47.514Z,31.03
2022-12-24T11:07:20.285Z,38.43
2022-12-24T11:10:14.735Z,48.30
2022-12-24T11:13:05.936Z,45.87
2022-12-24T11:15:35.581Z,49.60
2022-12-24T11:18:05.805Z,44.47
2022-12-24T11:20:34.599Z,42.33
2022-12-24T11:23:02.596Z,45.83
2022-12-24T11:25:31.904Z,46.43
2022-12-24T11:28:29.081Z,50.27
2022-12-24T11:31:06.695Z,51.80
2022-12-24T11:33:48.951Z,53.27
2022-12-24T11:36:17.691Z,51.83
2022-12-24T11:38:52.964Z,52.10
2022-12-24T11:41:20.267Z,56.23
2022-12-24T11:43:50.603Z,50.93
2022-12-24T11:46:21.136Z,52.77
2022-12-24T11:48:49.226Z,62.67
2022-12-24T11:51:23.447Z,58.10
2022-12-24T11:54:06.215Z,53.47
2022-12-24T11:56:36.604Z,49.17
2022-12-24T11:59:28.536Z,52.90
2022-12-24T12:02:02.974Z,50.63
2022-12-24T12:04:37.164Z,44.00
2022-12-24T12:07:15.235Z,41.00
2022-12-24T12:09:45.902Z,41.07
2022-12-24T12:12:16.445Z,38.77
2022-12-24T12:14:48.819Z,37.83
2022-12-24T12:17:38.262Z,38.87
2022-12-24T12:20:12.160Z,36.10
2022-12-24T12:22:47.209Z,36.93
2022-12-24T12:25:34.360Z,39.20
2022-12-24T12:28:04.014Z,37.63
2022-12-24T12:30:31.953Z,36.20
2022-12-24T12:33:04.900Z,40.23
2022-12-24T12:35:37.776Z,36.50
2022-12-24T12:38:29.103Z,42.33
2022-12-24T12:40:59.062Z,38.60
2022-12-24T12:43:33.937Z,44.00
2022-12-24T12:46:18.903Z,43.47
2022-12-24T12:49:07.309Z,42.27
2022-12-24T12:51:49.826Z,40.70
2022-12-24T12:54:17.097Z,43.63
2022-12-24T12:56:48.870Z,41.27
2022-12-24T12:59:22.252Z,42.47
2022-12-24T13:02:28.260Z,44.80
2022-12-24T13:05:05.573Z,43.83
2022-12-24T13:08:16.480Z,43.07
2022-12-24T13:10:43.763Z,43.43
2022-12-24T13:13:22.757Z,41.57
2022-12-24T13:16:09.744Z,35.50
2022-12-24T13:18:48.746Z,35.37
2022-12-24T13:21:18.032Z,35.67
2022-12-24T13:23:45.010Z,30.73
2022-12-24T13:26:13.721Z,34.27
2022-12-24T13:28:41.724Z,33.10
2022-12-24T13:31:11.743Z,32.47
2022-12-24T13:33:38.804Z,32.93
2022-12-24T13:36:11.434Z,35.17
2022-12-24T13:38:57.284Z,34.03
2022-12-24T13:41:39.405Z,37.43
2022-12-24T13:44:11.079Z,38.93
2022-12-24T13:46:50.342Z,39.90
2022-12-24T13:49:36.822Z,37.00
2022-12-24T13:52:14.394Z,38.63
2022-12-24T13:55:02.124Z,38.67
2022-12-24T13:57:39.423Z,39.53
2022-12-24T14:00:21.488Z,34.23
2022-12-24T14:02:52.969Z,37.20
2022-12-24T14:05:31.310Z,34.60
2022-12-24T14:08:00.465Z,32.80
2022-12-24T14:10:31.942Z,29.00
2022-12-24T14:12:59.245Z,37.50
2022-12-24T14:15:49.349Z,36.70
2022-12-24T14:18:23.920Z,41.73
2022-12-24T14:20:52.239Z,39.20
2022-12-24T14:23:34.261Z,32.10
2022-12-24T14:26:02.385Z,27.73
2022-12-24T14:28:43.721Z,29.50
2022-12-24T14:31:19.220Z,28.50
2022-12-24T14:33:46.684Z,40.63
2022-12-24T14:36:16.001Z,40.13
2022-12-24T14:38:44.349Z,40.23
2022-12-24T14:41:22.721Z,39.43
2022-12-24T14:44:10.693Z,37.50
2022-12-24T14:46:45.944Z,36.27
2022-12-24T14:49:57.846Z,36.57
2022-12-24T14:53:19.096Z,36.93
2022-12-24T14:55:48.959Z,37.30
2022-12-24T14:58:22.060Z,39.90
2022-12-24T15:00:50.441Z,39.57
2022-12-24T15:03:19.385Z,36.87
2022-12-24T15:05:54.640Z,40.30
2022-12-24T15:08:29.027Z,44.30
2022-12-24T15:11:01.474Z,41.33
2022-12-24T15:13:36.746Z,45.10
2022-12-24T15:16:18.679Z,44.50
2022-12-24T15:18:52.580Z,38.60
2022-12-24T15:21:33.486Z,31.97
2022-12-24T15:24:00.852Z,33.77
2022-12-24T15:26:37.055Z,34.03
2022-12-24T15:29:17.512Z,35.03
2022-12-24T15:31:44.741Z,35.20
2022-12-24T15:34:25.894Z,33.97
2022-12-24T15:36:53.320Z,37.43
2022-12-24T15:39:20.454Z,34.87
2022-12-24T15:42:08.327Z,32.37
2022-12-24T15:44:37.027Z,31.30
2022-12-24T15:47:07.018Z,31.80
2022-12-24T15:49:34.617Z,31.97
2022-12-24T15:52:06.988Z,33.67
2022-12-24T15:54:34.177Z,32.27
2022-12-24T15:57:14.322Z,31.27
2022-12-24T15:59:41.538Z,33.07
2022-12-24T16:02:36.636Z,35.57
2022-12-24T16:05:21.631Z,37.53
2022-12-24T16:08:10.138Z,34.93
2022-12-24T16:11:03.778Z,35.20
2022-12-24T16:13:32.638Z,31.97
2022-12-24T16:16:03.711Z,32.57
2022-12-24T16:18:49.482Z,30.70
2022-12-24T16:21:38.312Z,30.57
2022-12-24T16:24:24.249Z,30.30
2022-12-24T16:26:51.746Z,30.50
2022-12-24T16:29:19.691Z,31.43
2022-12-24T16:31:52.656Z,34.57
2022-12-24T16:34:24.268Z,33.07
2022-12-24T16:36:51.243Z,31.37
2022-12-24T16:39:23.281Z,32.43
2022-12-24T16:42:39.232Z,30.93
2022-12-24T16:45:07.421Z,30.63
2022-12-24T16:47:42.096Z,32.70
2022-12-24T16:50:15.450Z,33.03
2022-12-24T16:52:42.483Z,30.97
2022-12-24T16:55:13.479Z,31.13
2022-12-24T16:57:41.932Z,31.77
2022-12-24T17:00:20.953Z,30.20
2022-12-24T17:02:49.144Z,29.20
2022-12-24T17:05:18.061Z,30.77
2022-12-24T17:07:45.033Z,29.17
2022-12-24T17:10:13.803Z,30.20
2022-12-24T17:12:40.913Z,30.30
2022-12-24T17:15:08.634Z,28.47
2022-12-24T17:17:35.759Z,30.07
2022-12-24T17:20:04.766Z,28.93
2022-12-24T17:22:31.751Z,29.43
2022-12-24T17:24:59.132Z,27.60
2022-12-24T17:27:26.088Z,27.93
2022-12-24T17:29:53.402Z,27.77
2022-12-24T17:32:20.468Z,27.27
2022-12-24T17:34:47.817Z,28.50
2022-12-24T17:37:14.754Z,28.37
2022-12-24T17:39:42.142Z,29.30
2022-12-24T17:42:09.082Z,28.10
2022-12-24T17:44:36.413Z,29.30
2022-12-24T17:47:05.375Z,40.77
2022-12-24T17:49:33.003Z,61.47
2022-12-24T17:52:00.018Z,36.50
2022-12-24T17:54:27.299Z,35.23
2022-12-24T17:56:54.303Z,46.37
2022-12-24T17:59:21.560Z,42.00
2022-12-24T18:01:48.664Z,37.40
2022-12-24T18:04:15.993Z,38.30
2022-12-24T18:06:49.068Z,30.33
2022-12-24T18:09:17.215Z,27.53
2022-12-24T18:11:44.226Z,28.17
2022-12-24T18:14:14.118Z,27.10
2022-12-24T18:16:42.242Z,27.63
2022-12-24T18:19:11.768Z,28.20
2022-12-24T18:21:39.486Z,28.47
2022-12-24T18:24:07.108Z,28.30
2022-12-24T18:26:34.987Z,32.60
2022-12-24T18:29:04.727Z,35.33
2022-12-24T18:31:33.656Z,38.30
2022-12-24T18:34:02.649Z,33.87
2022-12-24T18:36:30.081Z,33.63
2022-12-24T18:38:57.486Z,31.20
2022-12-24T18:41:27.494Z,30.00
2022-12-24T18:43:55.356Z,27.07
2022-12-24T18:46:24.761Z,28.37
2022-12-24T18:48:53.076Z,27.13
2022-12-24T18:51:22.406Z,28.27
2022-12-24T18:53:50.484Z,27.87
2022-12-24T18:56:20.239Z,25.63
2022-12-24T18:58:48.002Z,31.77
2022-12-24T19:01:26.085Z,29.03
2022-12-24T19:03:53.520Z,27.03
2022-12-24T19:06:21.431Z,27.93
2022-12-24T19:08:58.349Z,27.53
2022-12-24T19:11:27.440Z,28.30
2022-12-24T19:13:54.740Z,27.03
2022-12-24T19:16:22.152Z,26.70
2022-12-24T19:18:50.037Z,27.70
2022-12-24T19:21:18.139Z,26.90
2022-12-24T19:23:46.555Z,29.47
2022-12-24T19:26:14.806Z,28.37
2022-12-24T19:28:42.642Z,28.40
2022-12-24T19:31:13.581Z,25.50
2022-12-24T19:33:46.073Z,25.90
2022-12-24T19:36:16.518Z,26.97
2022-12-24T19:38:44.157Z,26.03
2022-12-24T19:41:14.726Z,27.53
2022-12-24T19:43:44.525Z,28.70
2022-12-24T19:46:16.088Z,29.67
2022-12-24T19:48:43.858Z,34.33
2022-12-24T19:51:12.184Z,28.00
2022-12-24T19:53:40.011Z,24.70
2022-12-24T19:56:08.708Z,26.33
2022-12-24T19:58:36.464Z,24.47
2022-12-24T20:01:26.620Z,26.00
2022-12-24T20:03:54.346Z,26.67
2022-12-24T20:06:24.875Z,32.67
2022-12-24T20:08:52.206Z,34.07
2022-12-24T20:11:22.353Z,29.43
2022-12-24T20:13:49.636Z,29.67
2022-12-24T20:16:19.406Z,29.03
2022-12-24T20:18:57.794Z,25.60
2022-12-24T20:21:25.404Z,30.40
2022-12-24T20:23:53.074Z,31.67
2022-12-24T20:26:26.671Z,28.93
2022-12-24T20:28:54.325Z,26.37
2022-12-24T20:31:26.427Z,25.23
2022-12-24T20:33:53.920Z,25.73
2022-12-24T20:36:22.176Z,29.10
2022-12-24T20:38:50.321Z,35.50
2022-12-24T20:41:19.300Z,27.97
2022-12-24T20:43:48.599Z,27.73
2022-12-24T20:46:17.522Z,25.97
2022-12-24T20:48:44.958Z,25.33
2022-12-24T20:51:23.218Z,25.93
2022-12-24T20:53:52.983Z,24.50
2022-12-24T20:56:20.814Z,24.80
2022-12-24T20:58:48.391Z,26.27
2022-12-24T21:01:20.872Z,27.67
2022-12-24T21:03:48.231Z,28.87
2022-12-24T21:06:17.982Z,35.00
2022-12-24T21:08:49.682Z,28.93
2022-12-24T21:11:35.579Z,26.93
2022-12-24T21:14:03.113Z,25.40
2022-12-24T21:16:31.661Z,23.63
2022-12-24T21:18:59.134Z,24.80
2022-12-24T21:21:26.189Z,24.87
2022-12-24T21:23:53.769Z,24.40
2022-12-24T21:26:20.734Z,25.03
2022-12-24T21:28:48.082Z,24.90
2022-12-24T21:31:15.420Z,26.30
2022-12-24T21:33:43.103Z,29.60
2022-12-24T21:36:11.986Z,27.43
2022-12-24T21:38:39.676Z,29.50
2022-12-24T21:41:12.760Z,29.20
2022-12-24T21:43:40.279Z,26.17
2022-12-24T21:46:12.508Z,25.43
2022-12-24T21:48:59.009Z,25.50
2022-12-24T21:51:28.191Z,23.67
2022-12-24T21:54:14.679Z,24.17
2022-12-24T21:57:00.715Z,23.03
2022-12-24T21:59:28.321Z,24.30
2022-12-24T22:01:56.114Z,26.30
2022-12-24T22:04:24.025Z,30.67
2022-12-24T22:07:09.520Z,29.10
2022-12-24T22:09:58.194Z,25.10
2022-12-24T22:12:26.236Z,24.50
2022-12-24T22:14:53.473Z,27.07
2022-12-24T22:17:25.182Z,23.40
2022-12-24T22:19:56.392Z,27.00
2022-12-24T22:22:23.652Z,26.13
2022-12-24T22:24:50.972Z,26.40
2022-12-24T22:27:17.903Z,25.40
2022-12-24T22:29:45.393Z,26.20
2022-12-24T22:32:12.305Z,24.77
2022-12-24T22:34:39.589Z,24.90
2022-12-24T22:37:06.662Z,25.00
2022-12-24T22:39:33.962Z,24.37
2022-12-24T22:42:00.950Z,30.70
2022-12-24T22:44:28.834Z,28.00
2022-12-24T22:46:55.841Z,25.97
2022-12-24T22:49:23.160Z,23.43
2022-12-24T22:51:50.151Z,22.87
2022-12-24T22:54:17.457Z,23.67
2022-12-24T22:56:44.491Z,22.57
2022-12-24T22:59:14.986Z,21.03
2022-12-24T23:01:44.813Z,21.07
2022-12-24T23:04:13.434Z,19.87
2022-12-24T23:06:40.964Z,19.70
2022-12-24T23:09:09.965Z,18.07
2022-12-24T23:11:37.099Z,18.63
2022-12-24T23:14:30.571Z,18.80
2022-12-24T23:16:57.578Z,18.40
2022-12-24T23:19:24.772Z,18.23
2022-12-24T23:21:51.869Z,17.10
2022-12-24T23:24:20.451Z,17.87
2022-12-24T23:26:47.413Z,15.80
2022-12-24T23:29:14.680Z,17.50
2022-12-24T23:31:41.692Z,16.53
2022-12-24T23:34:09.147Z,15.43
2022-12-24T23:36:36.053Z,16.83
2022-12-24T23:39:03.696Z,16.50
2022-12-24T23:41:30.765Z,15.60
2022-12-24T23:43:58.021Z,18.47
2022-12-24T23:46:25.054Z,18.47
2022-12-24T23:48:56.038Z,19.43
2022-12-24T23:51:27.127Z,18.23
2022-12-24T23:53:56.146Z,19.13
2022-12-24T23:56:24.624Z,17.27
2022-12-24T23:58:52.188Z,16.73
